Time;durP1;ratioP1;P1;durP2;ratioP2;P2;SDS_P1;SDS_P2;PMS_P1;PMS_P2;Temp;Humidity;BMP_temperature;BMP_pressure;BME280_temperature;BME280_humidity;BME280_pressure;Samples;Min_cycle;Max_cycle;Signal;HPM_P1;HPM_P2
2022/10/14 00:00:36;;;;;;;;;;;18.00;96.70;;;;;;5092815;28;20181;-90
2022/10/14 00:03:02;;;;;;;;;;;18.10;96.70;;;;;;5076881;28;20262;-90
2022/10/14 00:05:28;;;;;;;;;;;18.10;96.70;;;;;;5076821;28;19908;-90
2022/10/14 00:07:53;;;;;;;;;;;18.10;96.70;;;;;;5077446;28;19919;-90
2022/10/14 00:10:19;;;;;;;;;;;18.10;96.70;;;;;;5077013;28;20173;-90
2022/10/14 00:12:46;;;;;;;;;;;18.10;96.70;;;;;;5077305;28;19908;-91
2022/10/14 00:15:12;;;;;;;;;;;18.00;96.70;;;;;;5094492;28;19912;-91
2022/10/14 00:17:37;;;;;;;;;;;18.00;96.70;;;;;;5077570;28;19991;-90
2022/10/14 00:20:03;;;;;;;;;;;18.00;96.70;;;;;;5077445;28;20182;-90
2022/10/14 00:22:29;;;;;;;;;;;18.00;96.70;;;;;;5077573;28;20003;-90
2022/10/14 00:24:55;;;;;;;;;;;18.00;96.70;;;;;;5077399;28;20103;-91
2022/10/14 00:27:20;;;;;;;;;;;18.00;96.70;;;;;;5077126;28;20068;-90
2022/10/14 00:29:46;;;;;;;;;;;18.00;96.70;;;;;;5075671;28;19924;-90
2022/10/14 00:32:12;;;;;;;;;;;18.00;96.70;;;;;;5074814;28;19908;-90
2022/10/14 00:34:37;;;;;;;;;;;18.00;96.60;;;;;;5076718;28;19908;-91
2022/10/14 00:37:03;;;;;;;;;;;18.00;96.60;;;;;;5076463;28;19916;-90
2022/10/14 00:39:28;;;;;;;;;;;18.00;96.70;;;;;;5076905;28;19947;-90
2022/10/14 00:41:54;;;;;;;;;;;18.00;96.70;;;;;;5077314;28;19934;-91
2022/10/14 00:44:20;;;;;;;;;;;18.00;96.70;;;;;;5077430;28;19908;-90
2022/10/14 00:46:46;;;;;;;;;;;18.00;96.70;;;;;;5092958;28;19955;-90
2022/10/14 00:49:12;;;;;;;;;;;18.00;96.60;;;;;;5077021;28;19912;-90
2022/10/14 00:51:38;;;;;;;;;;;18.00;96.60;;;;;;5094393;28;19918;-90
2022/10/14 00:54:04;;;;;;;;;;;18.00;96.60;;;;;;5077447;28;19916;-90
2022/10/14 00:56:30;;;;;;;;;;;18.00;96.70;;;;;;5077504;28;19923;-91
2022/10/14 00:58:56;;;;;;;;;;;18.00;96.70;;;;;;5094487;28;20212;-91
2022/10/14 01:01:22;;;;;;;;;;;18.00;96.60;;;;;;5078158;28;19908;-90
2022/10/14 01:03:48;;;;;;;;;;;18.00;96.60;;;;;;5078872;28;20017;-90
2022/10/14 01:06:39;;;;;;;;;;;18.00;96.60;;;;;;5079555;28;19945;-90
2022/10/14 01:09:14;;;;;;;;;;;18.00;96.70;;;;;;5081273;28;19912;-90
2022/10/14 01:11:48;;;;;;;;;;;18.00;96.60;;;;;;5097204;28;19908;-90
2022/10/14 01:14:38;;;;;;;;;;;18.00;96.60;;;;;;5081126;28;19915;-90
2022/10/14 01:17:17;;;;;;;;;;;18.00;96.60;;;;;;5079988;28;19909;-90
2022/10/14 01:19:51;;;;;;;;;;;18.00;96.60;;;;;;5079719;28;19919;-91
2022/10/14 01:22:36;;;;;;;;;;;18.00;96.60;;;;;;5079182;28;19908;-90
2022/10/14 01:25:19;;;;;;;;;;;18.00;96.60;;;;;;5096447;28;20075;-91
2022/10/14 01:27:57;;;;;;;;;;;18.00;96.60;;;;;;5080207;28;19908;-91
2022/10/14 01:30:24;;;;;;;;;;;18.00;96.60;;;;;;5079863;28;20281;-91
2022/10/14 01:32:54;;;;;;;;;;;18.00;96.60;;;;;;5080682;28;20274;-91
2022/10/14 01:35:23;;;;;;;;;;;18.00;96.60;;;;;;5081108;28;20297;-91
2022/10/14 01:37:53;;;;;;;;;;;18.00;96.60;;;;;;5081554;28;20248;-91
2022/10/14 01:40:27;;;;;;;;;;;18.00;96.60;;;;;;5081295;28;20002;-90
2022/10/14 01:42:54;;;;;;;;;;;18.00;96.50;;;;;;5080613;28;19969;-90
2022/10/14 01:45:21;;;;;;;;;;;18.00;96.60;;;;;;5080376;28;19908;-91
2022/10/14 01:47:48;;;;;;;;;;;18.00;96.50;;;;;;5078468;28;19914;-91
2022/10/14 01:50:15;;;;;;;;;;;18.00;96.60;;;;;;5078755;28;20001;-90
2022/10/14 01:52:50;;;;;;;;;;;18.00;96.60;;;;;;5094453;28;19919;-91
2022/10/14 01:55:17;;;;;;;;;;;18.00;96.60;;;;;;5077530;28;19915;-91
2022/10/14 01:57:44;;;;;;;;;;;18.00;96.60;;;;;;5077418;28;19908;-91
2022/10/14 02:00:10;;;;;;;;;;;17.90;96.50;;;;;;5077531;28;20140;-91
2022/10/14 02:02:36;;;;;;;;;;;18.00;96.60;;;;;;5078280;28;19968;-91
2022/10/14 02:05:07;;;;;;;;;;;18.00;96.60;;;;;;5078781;28;20176;-91
2022/10/14 02:07:35;;;;;;;;;;;18.00;96.50;;;;;;5080473;28;20282;-91
2022/10/14 02:10:04;;;;;;;;;;;18.00;96.50;;;;;;5080718;28;19911;-91
2022/10/14 02:12:44;;;;;;;;;;;18.00;96.60;;;;;;5097390;28;19919;-91
2022/10/14 02:15:13;;;;;;;;;;;18.00;96.60;;;;;;5080928;28;19908;-91
2022/10/14 02:17:47;;;;;;;;;;;18.00;96.50;;;;;;5097610;28;19908;-90
2022/10/14 02:20:22;;;;;;;;;;;18.00;96.50;;;;;;5080747;28;19908;-90
2022/10/14 02:22:57;;;;;;;;;;;18.00;96.50;;;;;;5081480;28;19908;-90
2022/10/14 02:25:30;;;;;;;;;;;18.00;96.50;;;;;;5079180;28;19908;-91
2022/10/14 02:27:57;;;;;;;;;;;18.00;96.50;;;;;;5077442;28;20167;-90
2022/10/14 02:30:23;;;;;;;;;;;18.00;96.50;;;;;;5077545;28;19912;-91
2022/10/14 02:32:50;;;;;;;;;;;18.00;96.50;;;;;;5078180;28;19918;-91
2022/10/14 02:35:17;;;;;;;;;;;17.90;96.50;;;;;;5078309;28;19919;-91
2022/10/14 02:37:44;;;;;;;;;;;17.90;96.50;;;;;;5079134;28;20078;-91
2022/10/14 02:40:12;;;;;;;;;;;17.90;96.50;;;;;;5078795;28;19908;-91
2022/10/14 02:42:38;;;;;;;;;;;17.90;96.50;;;;;;5076830;28;19922;-91
2022/10/14 02:45:04;;;;;;;;;;;17.90;96.50;;;;;;5078463;28;19912;-90
2022/10/14 02:47:30;;;;;;;;;;;17.90;96.50;;;;;;5077912;28;20185;-90
2022/10/14 02:49:56;;;;;;;;;;;17.90;96.50;;;;;;5078096;28;19912;-90
2022/10/14 02:52:21;;;;;;;;;;;17.90;96.50;;;;;;5077538;28;20240;-90
2022/10/14 02:54:47;;;;;;;;;;;17.90;96.50;;;;;;5076772;28;19919;-91
2022/10/14 02:57:12;;;;;;;;;;;17.90;96.50;;;;;;5078263;28;19993;-90
2022/10/14 02:59:41;;;;;;;;;;;17.90;96.50;;;;;;5078063;28;19918;-91
2022/10/14 03:02:07;;;;;;;;;;;17.90;96.50;;;;;;5077116;28;19916;-91
2022/10/14 03:04:33;;;;;;;;;;;17.90;96.50;;;;;;5077048;28;19969;-91
2022/10/14 03:06:58;;;;;;;;;;;17.90;96.50;;;;;;5076656;28;20512;-91
2022/10/14 03:09:24;;;;;;;;;;;17.90;96.50;;;;;;5076158;28;19938;-91
2022/10/14 03:11:50;;;;;;;;;;;17.90;96.50;;;;;;5075525;28;20006;-91
2022/10/14 03:14:15;;;;;;;;;;;17.90;96.50;;;;;;5074703;28;19908;-90
2022/10/14 03:16:41;;;;;;;;;;;17.90;96.50;;;;;;5075187;28;19908;-91
2022/10/14 03:19:07;;;;;;;;;;;17.90;96.50;;;;;;5075317;28;19954;-90
2022/10/14 03:21:32;;;;;;;;;;;17.90;96.60;;;;;;5076323;28;19912;-91
2022/10/14 03:24:00;;;;;;;;;;;17.90;96.50;;;;;;5074860;28;19908;-91
2022/10/14 03:26:26;;;;;;;;;;;17.90;96.50;;;;;;5074442;28;19951;-91
2022/10/14 03:28:54;;;;;;;;;;;17.90;96.60;;;;;;5074215;28;19981;-91
2022/10/14 03:31:20;;;;;;;;;;;17.90;96.50;;;;;;5075453;28;20250;-90
2022/10/14 03:33:45;;;;;;;;;;;17.90;96.50;;;;;;5076483;28;20002;-91
2022/10/14 03:36:11;;;;;;;;;;;17.90;96.50;;;;;;5075994;28;20014;-91
2022/10/14 03:38:37;;;;;;;;;;;17.90;96.50;;;;;;5075449;28;19922;-91
2022/10/14 03:41:02;;;;;;;;;;;17.90;96.60;;;;;;5074293;28;20203;-90
2022/10/14 03:43:28;;;;;;;;;;;17.80;96.50;;;;;;5090802;28;20070;-92
2022/10/14 03:45:54;;;;;;;;;;;17.90;96.50;;;;;;5075093;28;20244;-91
2022/10/14 03:48:19;;;;;;;;;;;17.90;96.50;;;;;;5075703;28;19908;-90
2022/10/14 03:50:48;;;;;;;;;;;17.90;96.50;;;;;;5075241;28;20293;-91
2022/10/14 03:53:14;;;;;;;;;;;17.90;96.60;;;;;;5092884;28;19908;-90
2022/10/14 03:55:39;;;;;;;;;;;17.90;96.50;;;;;;5090997;28;19918;-90
2022/10/14 03:58:05;;;;;;;;;;;17.90;96.60;;;;;;5092520;28;19919;-89
2022/10/14 04:00:31;;;;;;;;;;;17.90;96.60;;;;;;5074603;28;19908;-91
2022/10/14 04:02:57;;;;;;;;;;;17.90;96.60;;;;;;5092268;28;19908;-91
2022/10/14 04:05:23;;;;;;;;;;;17.90;96.60;;;;;;5073921;28;19919;-91
2022/10/14 04:07:49;;;;;;;;;;;17.80;96.50;;;;;;5073664;28;19908;-90
2022/10/14 04:10:14;;;;;;;;;;;17.90;96.60;;;;;;5074515;28;19978;-91
2022/10/14 04:12:40;;;;;;;;;;;17.80;96.60;;;;;;5074568;28;20273;-91
2022/10/14 04:15:07;;;;;;;;;;;17.90;96.60;;;;;;5073684;28;19970;-90
2022/10/14 04:17:32;;;;;;;;;;;17.80;96.60;;;;;;5072955;28;20143;-90
2022/10/14 04:19:58;;;;;;;;;;;17.90;96.60;;;;;;5073603;28;19942;-92
2022/10/14 04:22:24;;;;;;;;;;;17.90;96.60;;;;;;5071469;28;20364;-90
2022/10/14 04:24:49;;;;;;;;;;;17.80;96.60;;;;;;5074103;28;20145;-90
2022/10/14 04:27:16;;;;;;;;;;;17.80;96.60;;;;;;5071767;28;19911;-90
2022/10/14 04:29:41;;;;;;;;;;;17.80;96.60;;;;;;5073784;28;19916;-90
2022/10/14 04:32:07;;;;;;;;;;;17.80;96.60;;;;;;5073464;28;20179;-89
2022/10/14 04:34:33;;;;;;;;;;;17.80;96.60;;;;;;5088342;28;19908;-90
2022/10/14 04:37:55;;;;;;;;;;;17.80;96.60;;;;;;5140037;27;19922;-90
2022/10/14 04:40:24;;;;;;;;;;;17.80;96.60;;;;;;5123845;28;19912;-89
2022/10/14 04:42:52;;;;;;;;;;;17.80;96.60;;;;;;5108626;28;19908;-88
2022/10/14 04:45:18;;;;;;;;;;;17.80;96.60;;;;;;5107932;28;19908;-89
2022/10/14 04:47:44;;;;;;;;;;;17.80;96.60;;;;;;5106910;28;19912;-89
2022/10/14 04:50:09;;;;;;;;;;;17.90;96.60;;;;;;5107454;28;20014;-89
2022/10/14 04:52:35;;;;;;;;;;;17.80;96.60;;;;;;5106622;28;19966;-89
2022/10/14 04:55:02;;;;;;;;;;;17.80;96.60;;;;;;5106751;28;19930;-90
2022/10/14 04:57:28;;;;;;;;;;;17.80;96.60;;;;;;5106325;28;20349;-88
2022/10/14 04:59:53;;;;;;;;;;;17.80;96.90;;;;;;5106160;28;19908;-89
2022/10/14 05:02:19;;;;;;;;;;;17.80;96.60;;;;;;5106949;28;19947;-89
2022/10/14 05:04:44;;;;;;;;;;;17.80;96.60;;;;;;5106556;28;19955;-89
2022/10/14 05:07:11;;;;;;;;;;;17.80;96.60;;;;;;5108071;28;19908;-89
2022/10/14 05:09:36;;;;;;;;;;;17.80;96.60;;;;;;5106876;28;19919;-89
2022/10/14 05:12:03;;;;;;;;;;;17.80;96.60;;;;;;5106551;28;19908;-89
2022/10/14 05:14:29;;;;;;;;;;;17.80;96.60;;;;;;5107200;28;19961;-89
2022/10/14 05:16:54;;;;;;;;;;;17.80;96.60;;;;;;5107364;28;19916;-89
2022/10/14 05:19:20;;;;;;;;;;;17.80;96.60;;;;;;5106282;28;19908;-89
2022/10/14 05:21:45;;;;;;;;;;;17.80;96.60;;;;;;5108137;28;19934;-89
2022/10/14 05:24:11;;;;;;;;;;;17.80;96.50;;;;;;5106941;28;19915;-89
2022/10/14 05:26:37;;;;;;;;;;;17.80;96.50;;;;;;5105993;28;20064;-89
2022/10/14 05:29:03;;;;;;;;;;;17.80;96.50;;;;;;5103922;28;19908;-89
2022/10/14 05:31:29;;;;;;;;;;;17.80;96.50;;;;;;5102630;28;20347;-89
2022/10/14 05:33:55;;;;;;;;;;;17.80;96.50;;;;;;5102451;28;19916;-89
2022/10/14 05:36:20;;;;;;;;;;;17.80;96.50;;;;;;5102456;28;20177;-89
2022/10/14 05:38:46;;;;;;;;;;;17.80;96.50;;;;;;5102649;28;20076;-89
2022/10/14 05:41:11;;;;;;;;;;;17.80;96.50;;;;;;5102739;28;19915;-89
2022/10/14 05:43:37;;;;;;;;;;;17.80;96.40;;;;;;5104948;28;19993;-89
2022/10/14 05:46:03;;;;;;;;;;;17.80;96.40;;;;;;5104185;28;19955;-90
2022/10/14 05:48:28;;;;;;;;;;;17.80;96.40;;;;;;5096348;28;20150;-90
2022/10/14 05:50:54;;;;;;;;;;;17.80;96.40;;;;;;5091770;28;20138;-90
2022/10/14 05:53:21;;;;;;;;;;;17.80;96.40;;;;;;5093381;28;20261;-90
2022/10/14 05:55:46;;;;;;;;;;;17.80;96.40;;;;;;5089585;28;19915;-90
2022/10/14 05:58:12;;;;;;;;;;;17.90;96.40;;;;;;5090278;28;19995;-90
2022/10/14 06:00:38;;;;;;;;;;;17.80;96.60;;;;;;5089312;28;19908;-90
2022/10/14 06:03:04;;;;;;;;;;;17.90;96.40;;;;;;5106389;28;19912;-90
2022/10/14 06:05:30;;;;;;;;;;;17.90;96.40;;;;;;5090346;28;20189;-90
2022/10/14 06:07:55;;;;;;;;;;;17.90;96.40;;;;;;5090133;28;19908;-90
2022/10/14 06:10:21;;;;;;;;;;;17.80;96.30;;;;;;5089776;28;20048;-90
2022/10/14 06:12:47;;;;;;;;;;;17.90;96.30;;;;;;5090584;28;19922;-91
2022/10/14 06:15:12;;;;;;;;;;;17.90;96.30;;;;;;5090185;28;19893;-91
2022/10/14 06:17:38;;;;;;;;;;;17.90;96.30;;;;;;5087242;28;19912;-90
2022/10/14 06:20:04;;;;;;;;;;;17.90;96.20;;;;;;5088814;28;19927;-90
2022/10/14 06:22:29;;;;;;;;;;;18.00;96.20;;;;;;5088311;28;20171;-90
2022/10/14 06:24:55;;;;;;;;;;;18.00;96.10;;;;;;5088290;28;19912;-90
2022/10/14 06:27:20;;;;;;;;;;;18.00;96.00;;;;;;5087867;28;19938;-90
2022/10/14 06:29:46;;;;;;;;;;;18.00;96.00;;;;;;5087016;28;20025;-90
2022/10/14 06:32:12;;;;;;;;;;;18.00;96.00;;;;;;5087205;28;19908;-90
2022/10/14 06:34:37;;;;;;;;;;;18.00;95.90;;;;;;5087794;28;19939;-90
2022/10/14 06:37:03;;;;;;;;;;;18.00;95.90;;;;;;5087274;28;20011;-90
2022/10/14 06:39:29;;;;;;;;;;;18.00;95.90;;;;;;5089017;28;20060;-90
2022/10/14 06:41:54;;;;;;;;;;;18.00;95.90;;;;;;5088968;28;20396;-90
2022/10/14 06:44:20;;;;;;;;;;;18.10;95.90;;;;;;5090098;28;19908;-90
2022/10/14 06:46:45;;;;;;;;;;;18.00;95.80;;;;;;5089247;28;20064;-90
2022/10/14 06:49:11;;;;;;;;;;;18.00;95.80;;;;;;5088441;28;19908;-90
2022/10/14 06:51:38;;;;;;;;;;;18.00;95.80;;;;;;5090414;28;19908;-90
2022/10/14 06:54:04;;;;;;;;;;;18.00;95.80;;;;;;5089191;28;20193;-91
2022/10/14 06:56:30;;;;;;;;;;;18.10;95.80;;;;;;5088347;28;19912;-91
2022/10/14 06:58:56;;;;;;;;;;;18.10;95.70;;;;;;5086807;28;19908;-91
2022/10/14 07:01:22;;;;;;;;;;;18.20;95.70;;;;;;5087570;28;19939;-91
2022/10/14 07:03:47;;;;;;;;;;;18.20;95.50;;;;;;5086338;28;20250;-91
2022/10/14 07:06:13;;;;;;;;;;;18.20;95.40;;;;;;5086455;28;19969;-91
2022/10/14 07:08:39;;;;;;;;;;;18.20;95.40;;;;;;5084983;28;19909;-90
2022/10/14 07:11:04;;;;;;;;;;;18.20;95.40;;;;;;5086671;28;19908;-90
2022/10/14 07:13:32;;;;;;;;;;;18.30;95.30;;;;;;5088150;28;20271;-90
2022/10/14 07:15:58;;;;;;;;;;;18.30;95.10;;;;;;5088051;28;19912;-91
2022/10/14 07:18:24;;;;;;;;;;;18.50;94.90;;;;;;5087634;28;19962;-92
2022/10/14 07:20:49;;;;;;;;;;;18.80;94.20;;;;;;5085559;28;19912;-92
2022/10/14 07:23:15;;;;;;;;;;;18.90;93.70;;;;;;5084914;28;20036;-90
2022/10/14 07:25:41;;;;;;;;;;;19.40;92.40;;;;;;5119252;27;19935;-90
2022/10/14 07:28:07;;;;;;;;;;;19.40;92.00;;;;;;5085440;28;20390;-90
2022/10/14 07:30:32;;;;;;;;;;;19.30;92.10;;;;;;5084841;28;19958;-90
2022/10/14 07:32:58;;;;;;;;;;;19.30;92.10;;;;;;5086243;28;19912;-90
2022/10/14 07:35:25;;;;;;;;;;;19.20;92.20;;;;;;5086747;28;20253;-90
2022/10/14 07:37:51;;;;;;;;;;;19.20;92.30;;;;;;5085952;28;19916;-90
2022/10/14 07:40:17;;;;;;;;;;;19.10;92.40;;;;;;5085542;28;19912;-90
2022/10/14 07:42:43;;;;;;;;;;;19.00;92.70;;;;;;5086732;28;20341;-90
2022/10/14 07:45:08;;;;;;;;;;;19.00;92.90;;;;;;5086624;28;19919;-91
2022/10/14 07:47:34;;;;;;;;;;;18.90;93.00;;;;;;5087789;28;20260;-89
2022/10/14 07:50:00;;;;;;;;;;;18.80;93.10;;;;;;5085942;28;19908;-92
2022/10/14 07:52:26;;;;;;;;;;;18.80;93.30;;;;;;5086813;28;19914;-90
2022/10/14 07:54:52;;;;;;;;;;;18.80;93.40;;;;;;5086982;28;19908;-90
2022/10/14 07:57:18;;;;;;;;;;;18.70;93.60;;;;;;5086509;28;20393;-90
2022/10/14 07:59:45;;;;;;;;;;;18.70;93.70;;;;;;5086000;28;20271;-90
2022/10/14 08:02:10;;;;;;;;;;;18.70;93.80;;;;;;5085255;28;19908;-90
2022/10/14 08:04:36;;;;;;;;;;;18.70;93.90;;;;;;5085536;28;19916;-89
2022/10/14 08:07:03;;;;;;;;;;;18.70;93.90;;;;;;5085423;28;19921;-90
2022/10/14 08:09:29;;;;;;;;;;;18.70;93.90;;;;;;5117845;27;20274;-91
2022/10/14 08:11:54;;;;;;;;;;;18.80;93.80;;;;;;5084209;28;19915;-90
2022/10/14 08:14:20;;;;;;;;;;;18.90;93.80;;;;;;5084470;28;20022;-90
2022/10/14 08:16:46;;;;;;;;;;;19.10;93.60;;;;;;5083813;28;20171;-90
2022/10/14 08:19:12;;;;;;;;;;;19.20;93.40;;;;;;5084955;28;20262;-90
2022/10/14 08:21:38;;;;;;;;;;;19.10;93.50;;;;;;5083014;28;19919;-88
2022/10/14 08:24:04;;;;;;;;;;;19.10;93.70;;;;;;5084167;28;19931;-90
2022/10/14 08:26:32;;;;;;;;;;;19.00;94.00;;;;;;5084693;28;19908;-90
2022/10/14 08:29:00;;;;;;;;;;;18.90;94.20;;;;;;5084114;28;19919;-89
2022/10/14 08:31:26;;;;;;;;;;;18.90;94.50;;;;;;5084446;28;19962;-88
2022/10/14 08:33:51;;;;;;;;;;;18.90;94.70;;;;;;5086455;28;20180;-90
2022/10/14 08:36:18;;;;;;;;;;;18.90;94.90;;;;;;5087660;28;20351;-90
2022/10/14 08:38:44;;;;;;;;;;;18.90;95.00;;;;;;5084818;28;19916;-91
2022/10/14 08:41:13;;;;;;;;;;;18.90;95.10;;;;;;5084954;28;20182;-90
2022/10/14 08:43:42;;;;;;;;;;;18.90;95.40;;;;;;5087067;28;19973;-90
2022/10/14 08:46:26;;;;;;;;;;;18.90;95.60;;;;;;5084280;28;19916;-90
2022/10/14 08:48:59;;;;;;;;;;;18.90;95.70;;;;;;5083530;28;19934;-90
2022/10/14 08:51:26;;;;;;;;;;;18.80;95.90;;;;;;5118034;28;20266;-90
2022/10/14 08:53:55;;;;;;;;;;;18.80;96.00;;;;;;5118440;28;20155;-90
2022/10/14 08:56:22;;;;;;;;;;;18.80;96.10;;;;;;5085436;28;19962;-91
2022/10/14 08:58:49;;;;;;;;;;;18.80;96.20;;;;;;5083630;28;19951;-90
2022/10/14 09:01:18;;;;;;;;;;;18.80;96.20;;;;;;5084869;28;20204;-90
2022/10/14 09:03:43;;;;;;;;;;;18.70;96.20;;;;;;5084406;28;19920;-90
2022/10/14 09:06:24;;;;;;;;;;;18.70;96.30;;;;;;5085827;28;19908;-90
2022/10/14 09:08:51;;;;;;;;;;;18.80;96.40;;;;;;5084529;28;19908;-90
2022/10/14 09:11:18;;;;;;;;;;;18.80;96.40;;;;;;5084207;28;19920;-90
2022/10/14 09:13:54;;;;;;;;;;;18.80;96.40;;;;;;5085738;28;19908;-90
2022/10/14 09:16:22;;;;;;;;;;;18.80;96.60;;;;;;5083985;28;20015;-89
2022/10/14 09:18:53;;;;;;;;;;;18.80;96.90;;;;;;5081547;28;20273;-90
2022/10/14 09:21:21;;;;;;;;;;;18.90;97.60;;;;;;5082392;28;20105;-89
2022/10/14 09:23:48;;;;;;;;;;;19.00;97.30;;;;;;5085096;28;19917;-90
2022/10/14 09:26:18;;;;;;;;;;;19.10;97.00;;;;;;5087678;28;20150;-90
2022/10/14 09:28:44;;;;;;;;;;;19.10;96.80;;;;;;5088502;28;20247;-90
2022/10/14 09:31:10;;;;;;;;;;;19.20;96.70;;;;;;5085453;28;19930;-89
2022/10/14 09:33:38;;;;;;;;;;;19.20;97.00;;;;;;5086403;28;20019;-91
2022/10/14 09:36:13;;;;;;;;;;;19.20;96.80;;;;;;5085612;28;19916;-90
2022/10/14 09:38:38;;;;;;;;;;;19.20;96.80;;;;;;5085131;28;20367;-90
2022/10/14 09:41:08;;;;;;;;;;;19.10;96.80;;;;;;5084822;28;20255;-90
2022/10/14 09:43:33;;;;;;;;;;;19.10;96.90;;;;;;5085073;28;20006;-89
2022/10/14 09:46:01;;;;;;;;;;;19.10;96.90;;;;;;5087321;28;20025;-89
2022/10/14 09:48:31;;;;;;;;;;;19.10;97.00;;;;;;5086890;28;19908;-88
2022/10/14 09:50:58;;;;;;;;;;;19.10;97.10;;;;;;5087723;28;20014;-88
2022/10/14 09:53:28;;;;;;;;;;;19.10;97.20;;;;;;5089972;28;19908;-88
2022/10/14 09:55:55;;;;;;;;;;;19.10;97.30;;;;;;5090123;28;20450;-88
2022/10/14 09:58:27;;;;;;;;;;;19.10;97.30;;;;;;5087583;28;20266;-89
2022/10/14 10:00:58;;;;;;;;;;;19.20;97.40;;;;;;5088401;28;19977;-88
2022/10/14 10:03:34;;;;;;;;;;;19.20;97.00;;;;;;5088017;28;19908;-88
2022/10/14 10:06:01;;;;;;;;;;;19.30;96.90;;;;;;5121381;27;20205;-88
2022/10/14 10:08:27;;;;;;;;;;;19.30;96.70;;;;;;5089398;28;19923;-88
2022/10/14 10:11:00;;;;;;;;;;;19.40;96.70;;;;;;5089241;28;19916;-88
2022/10/14 10:13:38;;;;;;;;;;;19.40;96.70;;;;;;5086949;28;20483;-88
2022/10/14 10:16:05;;;;;;;;;;;19.40;96.70;;;;;;5087289;28;20014;-90
2022/10/14 10:18:31;;;;;;;;;;;19.40;96.70;;;;;;5088244;28;20345;-88
2022/10/14 10:21:16;;;;;;;;;;;19.30;96.70;;;;;;5086113;28;19972;-88
2022/10/14 10:23:49;;;;;;;;;;;19.30;96.80;;;;;;5086297;28;19908;-88
2022/10/14 10:26:27;;;;;;;;;;;19.30;97.00;;;;;;5084851;28;20116;-89
2022/10/14 10:28:54;;;;;;;;;;;19.30;97.10;;;;;;5087934;28;20310;-88
2022/10/14 10:31:20;;;;;;;;;;;19.20;97.20;;;;;;5092801;22;20114;-12
2022/10/14 10:34:02;;;;;;;;;;;19.20;97.20;;;;;;5088077;28;20251;-10
2022/10/14 10:36:30;;;;;;;;;;;19.20;97.20;;;;;;5087322;28;19912;-11
2022/10/14 10:38:56;;;;;;;;;;;19.20;97.20;;;;;;5088130;28;19908;-11
2022/10/14 10:41:21;;;;;;;;;;;19.20;97.20;;;;;;5087761;28;19993;-10
2022/10/14 10:43:48;;;;;;;;;;;19.20;97.20;;;;;;5087383;28;19991;-11
2022/10/14 10:46:30;;;;;;;;;;;19.30;97.20;;;;;;5085406;28;19935;-11
2022/10/14 10:49:00;;;;;;;;;;;19.30;97.20;;;;;;5087339;28;19912;-10
2022/10/14 10:51:31;;;;;;;;;;;19.30;97.30;;;;;;5087791;28;19908;-10
2022/10/14 10:54:05;;;;;;;;;;;19.30;97.20;;;;;;5083855;28;19908;-11
2022/10/14 10:56:38;;;;;;;;;;;19.30;97.20;;;;;;5084640;28;19933;-10
2022/10/14 10:59:05;;;;;;;;;;;19.30;97.20;;;;;;5084313;28;20064;-10
2022/10/14 11:01:39;;;;;;;;;;;19.40;97.30;;;;;;5085484;28;19908;-11
2022/10/14 11:04:11;;;;;;;;;;;19.40;97.20;;;;;;5085793;28;19998;-11
2022/10/14 11:12:32;;;;;;;;;;;19.40;97.30;;;;;;5086802;28;20149;-10
2022/10/14 11:15:06;;;;;;;;;;;19.40;97.30;;;;;;5085233;28;19920;-10
2022/10/14 11:17:35;;;;;;;;;;;19.30;97.30;;;;;;5086330;28;19912;-11
2022/10/14 11:20:04;;;;;;;;;;;19.30;97.40;;;;;;5087880;28;20069;-11
2022/10/14 11:22:42;;;;;;;;;;;19.40;97.50;;;;;;5087614;28;19908;-11
2022/10/14 11:25:26;;;;;;;;;;;19.40;97.50;;;;;;5087328;28;20242;-11
2022/10/14 11:27:57;;;;;;;;;;;19.40;97.50;;;;;;5087947;28;20272;-11
2022/10/14 11:30:43;;;;;;;;;;;19.50;97.50;;;;;;5088860;28;19962;-11
2022/10/14 11:33:10;;;;;;;;;;;19.50;97.40;;;;;;5087580;28;19916;-11
2022/10/14 11:35:59;;;;;;;;;;;19.50;97.40;;;;;;5085558;28;20151;-11
2022/10/14 11:38:24;;;;;;;;;;;19.50;97.40;;;;;;5083619;28;19912;-10
2022/10/14 11:40:56;;;;;;;;;;;19.50;97.50;;;;;;5087690;28;19908;-10
2022/10/14 11:43:24;;;;;;;;;;;19.50;97.50;;;;;;5088565;28;19908;-11
2022/10/14 11:45:50;;;;;;;;;;;19.50;97.50;;;;;;5086733;28;19938;-10
2022/10/14 11:48:21;;;;;;;;;;;19.50;97.50;;;;;;5088193;28;19908;-11
2022/10/14 11:50:50;;;;;;;;;;;19.50;97.60;;;;;;5087358;28;19908;-10
2022/10/14 11:53:18;;;;;;;;;;;19.50;97.80;;;;;;5089423;28;19908;-11
2022/10/14 11:55:59;;;;;;;;;;;19.50;97.90;;;;;;5088407;28;19933;-11
2022/10/14 11:58:25;;;;;;;;;;;19.50;97.90;;;;;;5087755;28;20342;-10
2022/10/14 12:00:54;;;;;;;;;;;19.50;98.00;;;;;;5088908;28;19908;-11
2022/10/14 12:03:38;;;;;;;;;;;19.60;98.10;;;;;;5089368;28;19916;-11
2022/10/14 12:06:03;;;;;;;;;;;19.60;98.10;;;;;;5086296;28;19912;-11
2022/10/14 12:08:49;;;;;;;;;;;19.60;98.10;;;;;;5085891;28;19976;-10
2022/10/14 12:11:27;;;;;;;;;;;19.60;98.00;;;;;;5085845;28;19943;-10
2022/10/14 12:13:56;;;;;;;;;;;19.60;98.00;;;;;;5084647;28;19931;-11
2022/10/14 12:16:23;;;;;;;;;;;19.60;98.00;;;;;;5083628;28;19912;-11
2022/10/14 12:18:51;;;;;;;;;;;19.60;98.10;;;;;;5084369;28;20055;-10
2022/10/14 12:21:42;;;;;;;;;;;19.60;98.30;;;;;;5084881;28;19908;-10
2022/10/14 12:24:13;;;;;;;;;;;19.60;98.40;;;;;;5084448;28;19908;-12
2022/10/14 12:26:45;;;;;;;;;;;19.50;98.40;;;;;;5082978;28;19908;-10
2022/10/14 12:29:17;;;;;;;;;;;19.50;98.40;;;;;;5083552;28;19982;-11
2022/10/14 12:31:47;;;;;;;;;;;19.50;98.50;;;;;;5084313;28;20040;-11
2022/10/14 12:34:12;;;;;;;;;;;19.50;98.50;;;;;;5084860;28;20270;-10
2022/10/14 12:36:39;;;;;;;;;;;19.50;98.50;;;;;;5082383;28;19977;-10
2022/10/14 12:39:17;;;;;;;;;;;19.50;98.40;;;;;;5084453;28;20182;-10
2022/10/14 12:41:54;;;;;;;;;;;19.50;98.40;;;;;;5084712;28;20383;-11
2022/10/14 12:44:21;;;;;;;;;;;19.60;98.30;;;;;;5084551;28;19919;-11
2022/10/14 12:46:47;;;;;;;;;;;19.60;98.30;;;;;;5086282;28;19988;-10
2022/10/14 12:49:20;;;;;;;;;;;19.60;98.30;;;;;;5094362;28;20274;-10
2022/10/14 12:51:57;;;;;;;;;;;19.60;98.20;;;;;;5094367;28;19977;-10
2022/10/14 12:54:23;;;;;;;;;;;19.60;98.50;;;;;;5087564;28;19909;-11
2022/10/14 12:56:53;;;;;;;;;;;19.60;98.20;;;;;;5086369;28;20280;-11
2022/10/14 12:59:28;;;;;;;;;;;19.60;98.30;;;;;;5086069;28;19908;-11
2022/10/14 13:01:55;;;;;;;;;;;19.60;98.20;;;;;;5085926;28;20334;-9
2022/10/14 13:04:21;;;;;;;;;;;19.60;98.30;;;;;;5088833;28;19962;-10
2022/10/14 13:07:12;;;;;;;;;;;19.60;98.30;;;;;;5088307;28;19999;-10
2022/10/14 13:09:38;;;;;;;;;;;19.60;99.00;;;;;;5088297;28;19908;-11
2022/10/14 13:12:03;;;;;;;;;;;19.60;98.80;;;;;;5085169;28;19922;-11
2022/10/14 13:14:31;;;;;;;;;;;19.60;98.80;;;;;;5084665;28;20435;-11
2022/10/14 13:17:22;;;;;;;;;;;19.60;98.80;;;;;;5085988;28;20307;-11
2022/10/14 13:19:48;;;;;;;;;;;19.60;98.90;;;;;;5087093;28;20152;-9
2022/10/14 13:22:30;;;;;;;;;;;19.60;98.90;;;;;;5089116;28;20028;-10
2022/10/14 13:25:11;;;;;;;;;;;19.60;98.90;;;;;;5090008;28;19916;-10
2022/10/14 13:27:45;;;;;;;;;;;19.70;98.90;;;;;;5090503;28;20186;-10
2022/10/14 13:30:22;;;;;;;;;;;19.70;98.90;;;;;;5087316;28;20082;-11
2022/10/14 13:32:51;;;;;;;;;;;19.80;98.80;;;;;;5088558;28;19916;-10
2022/10/14 13:35:30;;;;;;;;;;;19.80;98.70;;;;;;5085997;28;19908;-10
2022/10/14 13:38:00;;;;;;;;;;;19.80;98.70;;;;;;5087690;28;19912;-10
2022/10/14 13:40:30;;;;;;;;;;;19.80;98.80;;;;;;5086145;28;19913;-10
2022/10/14 13:42:57;;;;;;;;;;;19.70;98.90;;;;;;5083928;28;20304;-11
2022/10/14 13:45:27;;;;;;;;;;;19.70;99.10;;;;;;5086340;28;20020;-11
2022/10/14 13:47:53;;;;;;;;;;;19.60;99.10;;;;;;5085104;28;19918;-9
2022/10/14 13:50:20;;;;;;;;;;;19.60;99.30;;;;;;5082732;28;20136;-11
2022/10/14 13:52:51;;;;;;;;;;;19.60;99.40;;;;;;5088030;28;19919;-11
2022/10/14 13:55:18;;;;;;;;;;;19.60;99.60;;;;;;5087945;28;19951;-12
2022/10/14 13:57:58;;;;;;;;;;;19.50;99.60;;;;;;5086011;28;19961;-10
2022/10/14 14:00:27;;;;;;;;;;;19.50;99.70;;;;;;5086878;28;19908;-10
2022/10/14 14:02:52;;;;;;;;;;;19.50;99.80;;;;;;5088763;28;19948;-11
2022/10/14 14:05:18;;;;;;;;;;;19.50;99.90;;;;;;5089693;28;20353;-10
2022/10/14 14:07:44;;;;;;;;;;;19.50;99.90;;;;;;5087816;28;19920;-11
2022/10/14 14:10:10;;;;;;;;;;;19.50;99.90;;;;;;5087285;28;19938;-10
2022/10/14 14:12:40;;;;;;;;;;;19.50;99.90;;;;;;5086484;28;19919;-11
2022/10/14 14:15:05;;;;;;;;;;;19.50;99.90;;;;;;5086579;28;19935;-11
2022/10/14 14:17:32;;;;;;;;;;;19.50;99.90;;;;;;5089171;28;19949;-11
2022/10/14 14:19:58;;;;;;;;;;;19.50;99.90;;;;;;5086888;28;20011;-10
2022/10/14 14:22:28;;;;;;;;;;;19.50;99.90;;;;;;5088275;28;19908;-11
2022/10/14 14:25:12;;;;;;;;;;;19.50;99.90;;;;;;5086121;28;19973;-10
2022/10/14 14:27:48;;;;;;;;;;;19.50;99.90;;;;;;5076588;28;19909;-10
2022/10/14 14:30:21;;;;;;;;;;;19.50;99.90;;;;;;5076664;28;19963;-11